Besiktas Bosphorus — TCOG3 — position and weather

sailwx.info

Track history (hours):
 
Tides and Currents Weather Stations Pressure Air Temp Water Temp Dewpoint Dewpoint Depression Visibility Wind Speed Wind Dir Waves Ship Positions

Besiktas Bosphorus

Last reported at 2018-Feb-19 21:49 UTC. Time now 2018-Feb-20 02:04 UTC.
Position N 36°19' E 014°53'.

Length 274 m; draft 9 m.

Type: Tanker. MMSI: 271000817.

Date/timePositionNaut miles runAvg speedWind from/ knotsBaromVisibWave heightAir tempDewpointWater temp
2018-Feb-19 21:49N 36°19' E 014°53'614.5
2018-Feb-19 21:24N 36°20' E 014°46'614.5
2018-Feb-19 21:00N 36°21' E 014°39'714.5
2018-Feb-19 20:30N 36°22' E 014°30'714.5
2018-Feb-19 20:00N 36°24' E 014°21'714.5
2018-Feb-19 19:30N 36°26' E 014°12'714.6
2018-Feb-19 19:00N 36°28' E 014°04'814.6
2018-Feb-19 18:29N 36°30' E 013°55'  
2018-Feb-16 04:39N 37°58' W 009°60'214.0
2018-Feb-16 04:30N 37°60' W 010°00'714.3
2018-Feb-16 04:01N 38°07' W 010°02'714.2
2018-Feb-16 03:31N 38°13' W 010°04'714.0
2018-Feb-16 03:01N 38°20' W 010°06'714.1
2018-Feb-16 02:30N 38°27' W 010°08'714.2
2018-Feb-16 02:00N 38°34' W 010°09'714.1
2018-Feb-16 01:30N 38°41' W 010°11'714.3
2018-Feb-16 01:00N 38°48' W 010°12'713.9
2018-Feb-16 00:30N 38°55' W 010°12'713.3
2018-Feb-16 00:00N 39°02' W 010°11'713.6
2018-Feb-15 23:30N 39°09' W 010°11'713.6
2018-Feb-15 23:00N 39°16' W 010°11'713.5
2018-Feb-15 22:30N 39°22' W 010°11'813.5
2018-Feb-15 21:54N 39°30' W 010°11'513.3
2018-Feb-15 21:30N 39°36' W 010°11'  
2018-Feb-13 08:32N 49°39' W 003°51'010.9
2018-Feb-13 08:30N 49°39' W 003°50'9 9.4
2018-Feb-13 07:32N 49°43' W 003°38'0 8.4
2018-Feb-13 07:30N 49°44' W 003°38'4 7.5
2018-Feb-13 06:59N 49°46' W 003°33'3 7.0
2018-Feb-13 06:30N 49°47' W 003°28'4 7.1
2018-Feb-13 05:59N 49°49' W 003°23'4 7.3
2018-Feb-13 05:30N 49°51' W 003°19'4 7.9
2018-Feb-13 04:56N 49°53' W 003°12'4 8.1
2018-Feb-13 04:28N 49°55' W 003°07'4 8.3
2018-Feb-13 04:00N 49°57' W 003°02'3 5.5
2018-Feb-13 03:30N 49°58' W 002°59'2 4.8
2018-Feb-13 03:00N 49°59' W 002°55'3 5.4
2018-Feb-13 02:30N 50°00' W 002°51'3 6.6
2018-Feb-13 02:00N 50°01' W 002°46'4 6.8
2018-Feb-13 01:29N 50°02' W 002°41'3 7.3
2018-Feb-13 01:00N 50°03' W 002°36'19 8.0
2018-Feb-12 22:39N 50°08' W 002°08'3 7.7
2018-Feb-12 22:18N 50°09' W 002°04'2 7.3
2018-Feb-12 22:00N 50°10' W 002°01'3 6.8
2018-Feb-12 21:30N 50°11' W 001°56'3 6.7
2018-Feb-12 21:00N 50°12' W 001°51'3 6.5
2018-Feb-12 20:30N 50°13' W 001°46'3 5.6
2018-Feb-12 20:00N 50°14' W 001°42'3 5.3
2018-Feb-12 19:30N 50°16' W 001°38'3 5.4
2018-Feb-12 19:00N 50°16' W 001°34'2 4.8
2018-Feb-12 18:30N 50°17' W 001°31'3 5.2
2018-Feb-12 18:01N 50°18' W 001°27'3 5.3
2018-Feb-12 17:30N 50°19' W 001°23'3 5.6
2018-Feb-12 17:00N 50°20' W 001°19'3 6.1
2018-Feb-12 16:30N 50°21' W 001°15'6 6.9
2018-Feb-12 15:37N 50°25' W 001°07'1 7.8
2018-Feb-12 15:29N 50°26' W 001°06'6 8.0
2018-Feb-12 14:45N 50°31' W 001°02'2 8.7
2018-Feb-12 14:28N 50°33' W 001°01'4 8.9
2018-Feb-12 14:01N 50°37' W 000°59'4 8.8
2018-Feb-12 13:31N 50°42' W 000°58'612.5
2018-Feb-12 13:00N 50°45' W 001°06'713.3
2018-Feb-12 12:30N 50°47' W 001°17'3 6.7
2018-Feb-12 12:00N 50°50' W 001°19'1 1.6
2018-Feb-12 11:29N 50°50' W 001°20'0 0.0
2018-Feb-12 10:59N 50°50' W 001°20'0 0.0
2018-Feb-12 10:29N 50°50' W 001°20'0 0.0
2018-Feb-12 09:59N 50°50' W 001°20'0 0.0
2018-Feb-12 09:29N 50°50' W 001°20'0 0.0
2018-Feb-12 08:59N 50°50' W 001°20'0 0.0
2018-Feb-12 08:29N 50°50' W 001°20'0 0.0
2018-Feb-12 07:59N 50°50' W 001°20'0 0.0
2018-Feb-12 07:29N 50°50' W 001°20'0 0.0
2018-Feb-12 06:59N 50°50' W 001°20'0 0.0
2018-Feb-12 06:29N 50°50' W 001°20'0 0.0
2018-Feb-12 05:59N 50°50' W 001°20'0 0.0
2018-Feb-12 05:29N 50°50' W 001°20'0 0.0
2018-Feb-12 04:59N 50°50' W 001°20'0 0.0
2018-Feb-12 04:29N 50°50' W 001°20'0 0.0
2018-Feb-12 03:59N 50°50' W 001°20'0 0.0
2018-Feb-12 03:29N 50°50' W 001°20'0 0.0
2018-Feb-12 02:59N 50°50' W 001°20'0 0.0
2018-Feb-12 02:29N 50°50' W 001°20'0 0.0
2018-Feb-12 01:59N 50°50' W 001°20'0 0.0
2018-Feb-12 01:29N 50°50' W 001°20'0 0.0
2018-Feb-12 00:59N 50°50' W 001°20'0 0.0
2018-Feb-12 00:29N 50°50' W 001°20'0 0.0
2018-Feb-11 23:59N 50°50' W 001°20'0 0.0
2018-Feb-11 23:29N 50°50' W 001°20'0 0.0
2018-Feb-11 22:59N 50°50' W 001°20'0 0.0
2018-Feb-11 22:29N 50°50' W 001°20'0 0.0
2018-Feb-11 21:59N 50°50' W 001°20'0 0.0
2018-Feb-11 21:29N 50°50' W 001°20'0 0.0
2018-Feb-11 20:59N 50°50' W 001°20'0 0.0
2018-Feb-11 20:29N 50°50' W 001°20'0 0.0
2018-Feb-11 19:59N 50°50' W 001°20'0 0.0
2018-Feb-11 19:29N 50°50' W 001°20'0 0.0
2018-Feb-11 18:59N 50°50' W 001°20'0 0.0
2018-Feb-11 18:29N 50°50' W 001°20'0 0.0
2018-Feb-11 17:59N 50°50' W 001°20'0 0.0
2018-Feb-11 17:29N 50°50' W 001°20'0 0.0
2018-Feb-11 16:59N 50°50' W 001°20'0 0.0
2018-Feb-11 16:29N 50°50' W 001°20'0 0.0
2018-Feb-11 15:59N 50°50' W 001°20'0 0.0
2018-Feb-11 15:29N 50°50' W 001°20'0 0.0
2018-Feb-11 14:59N 50°50' W 001°20'0 0.0
2018-Feb-11 14:29N 50°50' W 001°20'0 0.0
2018-Feb-11 13:59N 50°50' W 001°20'0 0.0
2018-Feb-11 13:29N 50°50' W 001°20'0 0.0
2018-Feb-11 12:59N 50°50' W 001°20'0 0.0
2018-Feb-11 12:29N 50°50' W 001°20'0 0.0
2018-Feb-11 11:59N 50°50' W 001°20'0 0.0
2018-Feb-11 11:29N 50°50' W 001°20'0 0.0
2018-Feb-11 10:59N 50°50' W 001°20'0 0.0
2018-Feb-11 10:29N 50°50' W 001°20'0 0.0
2018-Feb-11 09:59N 50°50' W 001°20'0 0.0
2018-Feb-11 09:29N 50°50' W 001°20'0 0.0
2018-Feb-11 08:59N 50°50' W 001°20'0 0.0
2018-Feb-11 08:29N 50°50' W 001°20'0 0.0
2018-Feb-11 07:59N 50°50' W 001°20'0 0.0
2018-Feb-11 07:30N 50°50' W 001°20'0 0.7
2018-Feb-11 07:00N 50°50' W 001°19'4 7.0
2018-Feb-11 06:30N 50°47' W 001°19'611.4
2018-Feb-11 06:01N 50°46' W 001°10'611.3
2018-Feb-11 05:30N 50°43' W 001°02'510.2
2018-Feb-11 05:00N 50°39' W 000°57'4 7.6
2018-Feb-11 04:30N 50°35' W 000°58'3 6.0
2018-Feb-11 04:00N 50°34' W 001°02'0 0.6
2018-Feb-11 03:16N 50°35' W 001°03'0 0.1
2018-Feb-11 02:58N 50°35' W 001°03'0 0.1
2018-Feb-11 02:28N 50°35' W 001°02'0 0.1
2018-Feb-11 01:49N 50°35' W 001°03'0 0.1
2018-Feb-11 01:28N 50°35' W 001°03'0 0.2
2018-Feb-11 00:58N 50°35' W 001°02'0 0.1
2018-Feb-11 00:28N 50°35' W 001°03'0 0.1
2018-Feb-10 23:58N 50°35' W 001°03'0 0.0
2018-Feb-10 23:28N 50°35' W 001°03'0 0.0
2018-Feb-10 22:13N 50°35' W 001°03'0 0.0
2018-Feb-10 21:58N 50°35' W 001°03'0 0.0
2018-Feb-10 20:37N 50°35' W 001°03'0 0.3
2018-Feb-10 20:28N 50°35' W 001°03'0 0.1
2018-Feb-10 19:58N 50°35' W 001°03'0 0.1
2018-Feb-10 19:28N 50°35' W 001°03'0 0.1
2018-Feb-10 18:55N 50°35' W 001°03'0 0.1
2018-Feb-10 18:28N 50°35' W 001°03'0 0.0
2018-Feb-10 17:58N 50°35' W 001°03'0 0.0
2018-Feb-10 17:28N 50°35' W 001°03'0 0.0
2018-Feb-10 16:58N 50°35' W 001°03'0 0.0
2018-Feb-10 16:28N 50°35' W 001°03'0 0.0
2018-Feb-10 15:58N 50°35' W 001°03'0 0.0
2018-Feb-10 15:28N 50°35' W 001°03'0 0.0
2018-Feb-10 14:58N 50°35' W 001°03'0 0.0
2018-Feb-10 14:28N 50°35' W 001°03'0 0.1
2018-Feb-10 13:58N 50°35' W 001°03'0 0.1
2018-Feb-10 13:28N 50°35' W 001°03'0 0.1
2018-Feb-10 12:58N 50°35' W 001°03'0 0.0
2018-Feb-10 12:28N 50°35' W 001°03'0 0.1
2018-Feb-10 11:46N 50°35' W 001°03'0 0.2
2018-Feb-10 11:25N 50°35' W 001°03'0 0.3
2018-Feb-10 10:58N 50°35' W 001°03'0 0.1
2018-Feb-10 10:28N 50°35' W 001°03'0 0.0
2018-Feb-10 09:58N 50°35' W 001°03'0 0.0
2018-Feb-10 09:28N 50°35' W 001°03'0 0.0
2018-Feb-10 08:58N 50°35' W 001°03'0 0.1
2018-Feb-10 08:28N 50°35' W 001°03'0 0.2
2018-Feb-10 07:58N 50°35' W 001°03'0 0.1
2018-Feb-10 07:28N 50°35' W 001°03'0 0.2
2018-Feb-10 06:49N 50°35' W 001°03'0 0.1
2018-Feb-10 06:28N 50°35' W 001°03'0 0.0
2018-Feb-10 05:58N 50°35' W 001°03'0 0.1
2018-Feb-10 05:22N 50°35' W 001°03'0 1.4
2018-Feb-10 05:01N 50°35' W 001°02'3 5.7
2018-Feb-10 04:31N 50°34' W 000°58'611.0
2018-Feb-10 04:00N 50°32' W 000°49'612.0
2018-Feb-10 03:31N 50°30' W 000°41'612.1
2018-Feb-10 03:01N 50°28' W 000°32'612.2
2018-Feb-10 02:30N 50°29' W 000°22'612.5
2018-Feb-10 02:00N 50°31' W 000°13'612.8
2018-Feb-10 01:30N 50°32' W 000°03'713.2
2018-Feb-10 01:00N 50°33' E 000°08'713.5
2018-Feb-10 00:30N 50°35' E 000°18'713.7
2018-Feb-10 00:01N 50°37' E 000°28'713.7
2018-Feb-09 23:30N 50°40' E 000°38'714.1
2018-Feb-09 23:00N 50°44' E 000°47'314.0
2018-Feb-09 22:46N 50°46' E 000°51'413.9
2018-Feb-09 22:30N 50°48' E 000°56'  
Track history (hours):
 
Tides and Currents Weather Stations Pressure Air Temp Water Temp Dewpoint Dewpoint Depression Visibility Wind Speed Wind Dir Waves Ship Positions

Besiktas Bosphorus

Last reported at 2018-Feb-19 21:49 UTC. Time now 2018-Feb-20 02:04 UTC.
Position N 36°19' E 014°53'.

Length 274 m; draft 9 m.

Type: Tanker. MMSI: 271000817.

Date/timePositionNaut miles runAvg speedWind from/ knotsBaromVisibWave heightAir tempDewpointWater temp
2018-Feb-19 21:49N 36°19' E 014°53'614.5
2018-Feb-19 21:24N 36°20' E 014°46'614.5
2018-Feb-19 21:00N 36°21' E 014°39'714.5
2018-Feb-19 20:30N 36°22' E 014°30'714.5
2018-Feb-19 20:00N 36°24' E 014°21'714.5
2018-Feb-19 19:30N 36°26' E 014°12'714.6
2018-Feb-19 19:00N 36°28' E 014°04'814.6
2018-Feb-19 18:29N 36°30' E 013°55'  
2018-Feb-16 04:39N 37°58' W 009°60'214.0
2018-Feb-16 04:30N 37°60' W 010°00'714.3
2018-Feb-16 04:01N 38°07' W 010°02'714.2
2018-Feb-16 03:31N 38°13' W 010°04'714.0
2018-Feb-16 03:01N 38°20' W 010°06'714.1
2018-Feb-16 02:30N 38°27' W 010°08'714.2
2018-Feb-16 02:00N 38°34' W 010°09'714.1
2018-Feb-16 01:30N 38°41' W 010°11'714.3
2018-Feb-16 01:00N 38°48' W 010°12'713.9
2018-Feb-16 00:30N 38°55' W 010°12'713.3
2018-Feb-16 00:00N 39°02' W 010°11'713.6
2018-Feb-15 23:30N 39°09' W 010°11'713.6
2018-Feb-15 23:00N 39°16' W 010°11'713.5
2018-Feb-15 22:30N 39°22' W 010°11'813.5
2018-Feb-15 21:54N 39°30' W 010°11'513.3
2018-Feb-15 21:30N 39°36' W 010°11'  
2018-Feb-13 08:32N 49°39' W 003°51'010.9
2018-Feb-13 08:30N 49°39' W 003°50'9 9.4
2018-Feb-13 07:32N 49°43' W 003°38'0 8.4
2018-Feb-13 07:30N 49°44' W 003°38'4 7.5
2018-Feb-13 06:59N 49°46' W 003°33'3 7.0
2018-Feb-13 06:30N 49°47' W 003°28'4 7.1
2018-Feb-13 05:59N 49°49' W 003°23'4 7.3
2018-Feb-13 05:30N 49°51' W 003°19'4 7.9
2018-Feb-13 04:56N 49°53' W 003°12'4 8.1
2018-Feb-13 04:28N 49°55' W 003°07'4 8.3
2018-Feb-13 04:00N 49°57' W 003°02'3 5.5
2018-Feb-13 03:30N 49°58' W 002°59'2 4.8
2018-Feb-13 03:00N 49°59' W 002°55'3 5.4
2018-Feb-13 02:30N 50°00' W 002°51'3 6.6
2018-Feb-13 02:00N 50°01' W 002°46'4 6.8
2018-Feb-13 01:29N 50°02' W 002°41'3 7.3
2018-Feb-13 01:00N 50°03' W 002°36'19 8.0
2018-Feb-12 22:39N 50°08' W 002°08'3 7.7
2018-Feb-12 22:18N 50°09' W 002°04'2 7.3
2018-Feb-12 22:00N 50°10' W 002°01'3 6.8
2018-Feb-12 21:30N 50°11' W 001°56'3 6.7
2018-Feb-12 21:00N 50°12' W 001°51'3 6.5
2018-Feb-12 20:30N 50°13' W 001°46'3 5.6
2018-Feb-12 20:00N 50°14' W 001°42'3 5.3
2018-Feb-12 19:30N 50°16' W 001°38'3 5.4
2018-Feb-12 19:00N 50°16' W 001°34'2 4.8
2018-Feb-12 18:30N 50°17' W 001°31'3 5.2
2018-Feb-12 18:01N 50°18' W 001°27'3 5.3
2018-Feb-12 17:30N 50°19' W 001°23'3 5.6
2018-Feb-12 17:00N 50°20' W 001°19'3 6.1
2018-Feb-12 16:30N 50°21' W 001°15'6 6.9
2018-Feb-12 15:37N 50°25' W 001°07'1 7.8
2018-Feb-12 15:29N 50°26' W 001°06'6 8.0
2018-Feb-12 14:45N 50°31' W 001°02'2 8.7
2018-Feb-12 14:28N 50°33' W 001°01'4 8.9
2018-Feb-12 14:01N 50°37' W 000°59'4 8.8
2018-Feb-12 13:31N 50°42' W 000°58'612.5
2018-Feb-12 13:00N 50°45' W 001°06'713.3
2018-Feb-12 12:30N 50°47' W 001°17'3 6.7
2018-Feb-12 12:00N 50°50' W 001°19'1 1.6
2018-Feb-12 11:29N 50°50' W 001°20'0 0.0
2018-Feb-12 10:59N 50°50' W 001°20'0 0.0
2018-Feb-12 10:29N 50°50' W 001°20'0 0.0
2018-Feb-12 09:59N 50°50' W 001°20'0 0.0
2018-Feb-12 09:29N 50°50' W 001°20'0 0.0
2018-Feb-12 08:59N 50°50' W 001°20'0 0.0
2018-Feb-12 08:29N 50°50' W 001°20'0 0.0
2018-Feb-12 07:59N 50°50' W 001°20'0 0.0
2018-Feb-12 07:29N 50°50' W 001°20'0 0.0
2018-Feb-12 06:59N 50°50' W 001°20'0 0.0
2018-Feb-12 06:29N 50°50' W 001°20'0 0.0
2018-Feb-12 05:59N 50°50' W 001°20'0 0.0
2018-Feb-12 05:29N 50°50' W 001°20'0 0.0
2018-Feb-12 04:59N 50°50' W 001°20'0 0.0
2018-Feb-12 04:29N 50°50' W 001°20'0 0.0
2018-Feb-12 03:59N 50°50' W 001°20'0 0.0
2018-Feb-12 03:29N 50°50' W 001°20'0 0.0
2018-Feb-12 02:59N 50°50' W 001°20'0 0.0
2018-Feb-12 02:29N 50°50' W 001°20'0 0.0
2018-Feb-12 01:59N 50°50' W 001°20'0 0.0
2018-Feb-12 01:29N 50°50' W 001°20'0 0.0
2018-Feb-12 00:59N 50°50' W 001°20'0 0.0
2018-Feb-12 00:29N 50°50' W 001°20'0 0.0
2018-Feb-11 23:59N 50°50' W 001°20'0 0.0
2018-Feb-11 23:29N 50°50' W 001°20'0 0.0
2018-Feb-11 22:59N 50°50' W 001°20'0 0.0
2018-Feb-11 22:29N 50°50' W 001°20'0 0.0
2018-Feb-11 21:59N 50°50' W 001°20'0 0.0
2018-Feb-11 21:29N 50°50' W 001°20'0 0.0
2018-Feb-11 20:59N 50°50' W 001°20'0 0.0
2018-Feb-11 20:29N 50°50' W 001°20'0 0.0
2018-Feb-11 19:59N 50°50' W 001°20'0 0.0
2018-Feb-11 19:29N 50°50' W 001°20'0 0.0
2018-Feb-11 18:59N 50°50' W 001°20'0 0.0
2018-Feb-11 18:29N 50°50' W 001°20'0 0.0
2018-Feb-11 17:59N 50°50' W 001°20'0 0.0
2018-Feb-11 17:29N 50°50' W 001°20'0 0.0
2018-Feb-11 16:59N 50°50' W 001°20'0 0.0
2018-Feb-11 16:29N 50°50' W 001°20'0 0.0
2018-Feb-11 15:59N 50°50' W 001°20'0 0.0
2018-Feb-11 15:29N 50°50' W 001°20'0 0.0
2018-Feb-11 14:59N 50°50' W 001°20'0 0.0
2018-Feb-11 14:29N 50°50' W 001°20'0 0.0
2018-Feb-11 13:59N 50°50' W 001°20'0 0.0
2018-Feb-11 13:29N 50°50' W 001°20'0 0.0
2018-Feb-11 12:59N 50°50' W 001°20'0 0.0
2018-Feb-11 12:29N 50°50' W 001°20'0 0.0
2018-Feb-11 11:59N 50°50' W 001°20'0 0.0
2018-Feb-11 11:29N 50°50' W 001°20'0 0.0
2018-Feb-11 10:59N 50°50' W 001°20'0 0.0
2018-Feb-11 10:29N 50°50' W 001°20'0 0.0
2018-Feb-11 09:59N 50°50' W 001°20'0 0.0
2018-Feb-11 09:29N 50°50' W 001°20'0 0.0
2018-Feb-11 08:59N 50°50' W 001°20'0 0.0
2018-Feb-11 08:29N 50°50' W 001°20'0 0.0
2018-Feb-11 07:59N 50°50' W 001°20'0 0.0
2018-Feb-11 07:30N 50°50' W 001°20'0 0.7
2018-Feb-11 07:00N 50°50' W 001°19'4 7.0
2018-Feb-11 06:30N 50°47' W 001°19'611.4
2018-Feb-11 06:01N 50°46' W 001°10'611.3
2018-Feb-11 05:30N 50°43' W 001°02'510.2
2018-Feb-11 05:00N 50°39' W 000°57'4 7.6
2018-Feb-11 04:30N 50°35' W 000°58'3 6.0
2018-Feb-11 04:00N 50°34' W 001°02'0 0.6
2018-Feb-11 03:16N 50°35' W 001°03'0 0.1
2018-Feb-11 02:58N 50°35' W 001°03'0 0.1
2018-Feb-11 02:28N 50°35' W 001°02'0 0.1
2018-Feb-11 01:49N 50°35' W 001°03'0 0.1
2018-Feb-11 01:28N 50°35' W 001°03'0 0.2
2018-Feb-11 00:58N 50°35' W 001°02'0 0.1
2018-Feb-11 00:28N 50°35' W 001°03'0 0.1
2018-Feb-10 23:58N 50°35' W 001°03'0 0.0
2018-Feb-10 23:28N 50°35' W 001°03'0 0.0
2018-Feb-10 22:13N 50°35' W 001°03'0 0.0
2018-Feb-10 21:58N 50°35' W 001°03'0 0.0
2018-Feb-10 20:37N 50°35' W 001°03'0 0.3
2018-Feb-10 20:28N 50°35' W 001°03'0 0.1
2018-Feb-10 19:58N 50°35' W 001°03'0 0.1
2018-Feb-10 19:28N 50°35' W 001°03'0 0.1
2018-Feb-10 18:55N 50°35' W 001°03'0 0.1
2018-Feb-10 18:28N 50°35' W 001°03'0 0.0
2018-Feb-10 17:58N 50°35' W 001°03'0 0.0
2018-Feb-10 17:28N 50°35' W 001°03'0 0.0
2018-Feb-10 16:58N 50°35' W 001°03'0 0.0
2018-Feb-10 16:28N 50°35' W 001°03'0 0.0
2018-Feb-10 15:58N 50°35' W 001°03'0 0.0
2018-Feb-10 15:28N 50°35' W 001°03'0 0.0
2018-Feb-10 14:58N 50°35' W 001°03'0 0.0
2018-Feb-10 14:28N 50°35' W 001°03'0 0.1
2018-Feb-10 13:58N 50°35' W 001°03'0 0.1
2018-Feb-10 13:28N 50°35' W 001°03'0 0.1
2018-Feb-10 12:58N 50°35' W 001°03'0 0.0
2018-Feb-10 12:28N 50°35' W 001°03'0 0.1
2018-Feb-10 11:46N 50°35' W 001°03'0 0.2
2018-Feb-10 11:25N 50°35' W 001°03'0 0.3
2018-Feb-10 10:58N 50°35' W 001°03'0 0.1
2018-Feb-10 10:28N 50°35' W 001°03'0 0.0
2018-Feb-10 09:58N 50°35' W 001°03'0 0.0
2018-Feb-10 09:28N 50°35' W 001°03'0 0.0
2018-Feb-10 08:58N 50°35' W 001°03'0 0.1
2018-Feb-10 08:28N 50°35' W 001°03'0 0.2
2018-Feb-10 07:58N 50°35' W 001°03'0 0.1
2018-Feb-10 07:28N 50°35' W 001°03'0 0.2
2018-Feb-10 06:49N 50°35' W 001°03'0 0.1
2018-Feb-10 06:28N 50°35' W 001°03'0 0.0
2018-Feb-10 05:58N 50°35' W 001°03'0 0.1
2018-Feb-10 05:22N 50°35' W 001°03'0 1.4
2018-Feb-10 05:01N 50°35' W 001°02'3 5.7
2018-Feb-10 04:31N 50°34' W 000°58'611.0
2018-Feb-10 04:00N 50°32' W 000°49'612.0
2018-Feb-10 03:31N 50°30' W 000°41'612.1
2018-Feb-10 03:01N 50°28' W 000°32'612.2
2018-Feb-10 02:30N 50°29' W 000°22'612.5
2018-Feb-10 02:00N 50°31' W 000°13'612.8
2018-Feb-10 01:30N 50°32' W 000°03'713.2
2018-Feb-10 01:00N 50°33' E 000°08'713.5
2018-Feb-10 00:30N 50°35' E 000°18'713.7
2018-Feb-10 00:01N 50°37' E 000°28'713.7
2018-Feb-09 23:30N 50°40' E 000°38'714.1
2018-Feb-09 23:00N 50°44' E 000°47'314.0
2018-Feb-09 22:46N 50°46' E 000°51'413.9
2018-Feb-09 22:30N 50°48' E 000°56'  

Dump ship's entire track history